sensor_id;sensor_type;location;lat;lon;timestamp;pressure;altitude;pressure_sealevel;temperature;humidity
84667;BME280;74896;42.518;23.712;2023-12-29T00:01:17;92650.47;;;1.97;74.22
84667;BME280;74896;42.518;23.712;2023-12-29T00:03:43;92646.28;;;2.04;73.99
84667;BME280;74896;42.518;23.712;2023-12-29T00:06:08;92646.44;;;2.02;74.40
84667;BME280;74896;42.518;23.712;2023-12-29T00:08:34;92642.56;;;2.29;73.57
84667;BME280;74896;42.518;23.712;2023-12-29T00:10:59;92647.91;;;2.20;73.30
84667;BME280;74896;42.518;23.712;2023-12-29T00:13:25;92640.97;;;2.05;75.04
84667;BME280;74896;42.518;23.712;2023-12-29T00:15:55;92646.03;;;2.13;75.58
84667;BME280;74896;42.518;23.712;2023-12-29T00:18:21;92650.06;;;2.08;75.91
84667;BME280;74896;42.518;23.712;2023-12-29T00:20:48;92642.91;;;2.03;76.45
84667;BME280;74896;42.518;23.712;2023-12-29T00:23:14;92642.56;;;2.29;76.62
84667;BME280;74896;42.518;23.712;2023-12-29T00:25:39;92641.28;;;2.48;77.24
84667;BME280;74896;42.518;23.712;2023-12-29T00:28:05;92651.31;;;2.87;75.54
84667;BME280;74896;42.518;23.712;2023-12-29T00:30:31;92651.56;;;2.62;73.99
84667;BME280;74896;42.518;23.712;2023-12-29T00:32:56;92646.06;;;2.65;76.58
84667;BME280;74896;42.518;23.712;2023-12-29T00:35:22;92648.94;;;2.85;75.84
84667;BME280;74896;42.518;23.712;2023-12-29T00:37:47;92649.38;;;2.89;75.08
84667;BME280;74896;42.518;23.712;2023-12-29T00:40:13;92653.75;;;2.65;74.85
84667;BME280;74896;42.518;23.712;2023-12-29T00:42:38;92646.59;;;2.61;76.19
84667;BME280;74896;42.518;23.712;2023-12-29T00:45:04;92653.16;;;2.63;75.87
84667;BME280;74896;42.518;23.712;2023-12-29T00:47:30;92649.31;;;2.45;76.65
84667;BME280;74896;42.518;23.712;2023-12-29T00:49:56;92645.00;;;2.23;76.23
84667;BME280;74896;42.518;23.712;2023-12-29T00:52:21;92652.69;;;2.00;76.05
84667;BME280;74896;42.518;23.712;2023-12-29T00:54:47;92654.16;;;1.94;75.85
84667;BME280;74896;42.518;23.712;2023-12-29T00:57:12;92645.97;;;1.76;78.44
84667;BME280;74896;42.518;23.712;2023-12-29T00:59:38;92643.75;;;1.73;79.18
84667;BME280;74896;42.518;23.712;2023-12-29T01:02:06;92638.09;;;1.86;79.89
84667;BME280;74896;42.518;23.712;2023-12-29T01:04:32;92637.69;;;1.97;79.55
84667;BME280;74896;42.518;23.712;2023-12-29T01:06:58;92635.06;;;2.05;78.97
84667;BME280;74896;42.518;23.712;2023-12-29T01:09:23;92637.13;;;2.09;78.85
84667;BME280;74896;42.518;23.712;2023-12-29T01:11:48;92634.94;;;1.98;80.04
84667;BME280;74896;42.518;23.712;2023-12-29T01:14:14;92636.22;;;2.02;79.78
84667;BME280;74896;42.518;23.712;2023-12-29T01:16:40;92632.69;;;2.03;80.05
84667;BME280;74896;42.518;23.712;2023-12-29T01:19:06;92630.63;;;1.99;79.18
84667;BME280;74896;42.518;23.712;2023-12-29T01:21:32;92633.28;;;1.60;78.69
84667;BME280;74896;42.518;23.712;2023-12-29T01:24:00;92632.66;;;1.58;79.37
84667;BME280;74896;42.518;23.712;2023-12-29T01:26:26;92635.28;;;1.42;78.91
84667;BME280;74896;42.518;23.712;2023-12-29T01:28:51;92637.75;;;1.27;78.19
84667;BME280;74896;42.518;23.712;2023-12-29T01:31:17;92635.44;;;1.02;79.41
84667;BME280;74896;42.518;23.712;2023-12-29T01:33:42;92635.81;;;0.91;80.11
84667;BME280;74896;42.518;23.712;2023-12-29T01:36:08;92635.66;;;0.84;79.98
84667;BME280;74896;42.518;23.712;2023-12-29T01:38:33;92635.34;;;0.87;79.53
84667;BME280;74896;42.518;23.712;2023-12-29T01:40:59;92634.88;;;0.92;79.56
84667;BME280;74896;42.518;23.712;2023-12-29T01:43:24;92642.66;;;0.90;79.74
84667;BME280;74896;42.518;23.712;2023-12-29T01:45:49;92643.00;;;0.87;80.68
84667;BME280;74896;42.518;23.712;2023-12-29T01:48:15;92641.91;;;0.90;80.23
84667;BME280;74896;42.518;23.712;2023-12-29T01:50:40;92633.25;;;0.91;80.92
84667;BME280;74896;42.518;23.712;2023-12-29T01:53:06;92625.97;;;0.80;81.36
84667;BME280;74896;42.518;23.712;2023-12-29T01:55:32;92622.91;;;0.84;81.75
84667;BME280;74896;42.518;23.712;2023-12-29T01:57:58;92621.78;;;0.87;81.37
84667;BME280;74896;42.518;23.712;2023-12-29T02:00:23;92624.69;;;0.76;81.92
84667;BME280;74896;42.518;23.712;2023-12-29T02:02:49;92621.16;;;0.77;81.38
84667;BME280;74896;42.518;23.712;2023-12-29T02:05:15;92623.72;;;0.77;82.04
84667;BME280;74896;42.518;23.712;2023-12-29T02:07:42;92623.91;;;0.75;83.21
84667;BME280;74896;42.518;23.712;2023-12-29T02:10:08;92616.41;;;1.51;83.33
84667;BME280;74896;42.518;23.712;2023-12-29T02:12:35;92615.50;;;1.89;79.90
84667;BME280;74896;42.518;23.712;2023-12-29T02:15:05;92619.56;;;1.61;80.35
84667;BME280;74896;42.518;23.712;2023-12-29T02:17:38;92611.19;;;1.36;82.22
84667;BME280;74896;42.518;23.712;2023-12-29T02:20:05;92622.81;;;1.16;82.22
84667;BME280;74896;42.518;23.712;2023-12-29T02:22:32;92616.38;;;1.20;83.40
84667;BME280;74896;42.518;23.712;2023-12-29T02:24:57;92624.09;;;1.12;83.43
84667;BME280;74896;42.518;23.712;2023-12-29T02:27:41;92628.41;;;1.04;81.67
84667;BME280;74896;42.518;23.712;2023-12-29T02:30:24;92626.75;;;0.80;81.47
84667;BME280;74896;42.518;23.712;2023-12-29T02:32:54;92621.06;;;0.62;82.97
84667;BME280;74896;42.518;23.712;2023-12-29T02:35:22;92617.34;;;0.73;81.44
84667;BME280;74896;42.518;23.712;2023-12-29T02:37:49;92613.38;;;0.70;82.20
84667;BME280;74896;42.518;23.712;2023-12-29T02:40:15;92605.75;;;0.54;82.65
84667;BME280;74896;42.518;23.712;2023-12-29T02:42:45;92601.94;;;0.42;83.03
84667;BME280;74896;42.518;23.712;2023-12-29T02:45:11;92603.56;;;0.35;84.23
84667;BME280;74896;42.518;23.712;2023-12-29T02:47:37;92604.84;;;0.31;83.64
84667;BME280;74896;42.518;23.712;2023-12-29T02:50:02;92598.59;;;0.49;83.69
84667;BME280;74896;42.518;23.712;2023-12-29T02:52:28;92597.63;;;0.58;83.93
84667;BME280;74896;42.518;23.712;2023-12-29T02:54:53;92590.50;;;0.30;82.80
84667;BME280;74896;42.518;23.712;2023-12-29T02:57:19;92585.41;;;0.22;84.42
84667;BME280;74896;42.518;23.712;2023-12-29T02:59:44;92588.59;;;0.24;83.88
84667;BME280;74896;42.518;23.712;2023-12-29T03:02:10;92592.44;;;0.20;86.05
84667;BME280;74896;42.518;23.712;2023-12-29T03:04:35;92583.00;;;0.28;85.22
84667;BME280;74896;42.518;23.712;2023-12-29T03:07:01;92579.47;;;0.37;84.78
84667;BME280;74896;42.518;23.712;2023-12-29T03:09:26;92578.09;;;0.27;85.16
84667;BME280;74896;42.518;23.712;2023-12-29T03:11:51;92571.22;;;0.19;85.56
84667;BME280;74896;42.518;23.712;2023-12-29T03:14:17;92574.72;;;0.34;85.63
84667;BME280;74896;42.518;23.712;2023-12-29T03:16:42;92571.84;;;0.37;85.20
84667;BME280;74896;42.518;23.712;2023-12-29T03:19:07;92565.16;;;0.36;85.42
84667;BME280;74896;42.518;23.712;2023-12-29T03:21:33;92563.72;;;0.26;86.36
84667;BME280;74896;42.518;23.712;2023-12-29T03:23:58;92563.25;;;0.38;85.44
84667;BME280;74896;42.518;23.712;2023-12-29T03:26:23;92559.66;;;0.55;85.64
84667;BME280;74896;42.518;23.712;2023-12-29T03:28:50;92547.84;;;0.70;85.29
84667;BME280;74896;42.518;23.712;2023-12-29T03:31:15;92554.19;;;0.83;85.62
84667;BME280;74896;42.518;23.712;2023-12-29T03:33:40;92540.56;;;0.90;84.29
84667;BME280;74896;42.518;23.712;2023-12-29T03:36:06;92545.22;;;0.87;85.63
84667;BME280;74896;42.518;23.712;2023-12-29T03:38:32;92538.63;;;0.92;83.96
84667;BME280;74896;42.518;23.712;2023-12-29T03:40:58;92537.66;;;1.01;85.62
84667;BME280;74896;42.518;23.712;2023-12-29T03:43:24;92535.09;;;1.01;85.76
84667;BME280;74896;42.518;23.712;2023-12-29T03:45:49;92528.53;;;1.07;84.95
84667;BME280;74896;42.518;23.712;2023-12-29T03:48:14;92528.53;;;1.07;83.60
84667;BME280;74896;42.518;23.712;2023-12-29T03:50:40;92525.44;;;1.19;83.08
84667;BME280;74896;42.518;23.712;2023-12-29T03:53:05;92531.38;;;1.12;81.64
84667;BME280;74896;42.518;23.712;2023-12-29T03:55:30;92530.44;;;1.05;83.17
84667;BME280;74896;42.518;23.712;2023-12-29T03:57:56;92519.63;;;0.95;82.83
84667;BME280;74896;42.518;23.712;2023-12-29T04:00:22;92527.91;;;1.05;83.74
84667;BME280;74896;42.518;23.712;2023-12-29T04:02:47;92532.75;;;0.92;85.26
84667;BME280;74896;42.518;23.712;2023-12-29T04:05:12;92527.44;;;1.01;83.29
84667;BME280;74896;42.518;23.712;2023-12-29T04:07:41;92524.13;;;1.46;84.41
84667;BME280;74896;42.518;23.712;2023-12-29T04:10:07;92529.22;;;1.23;82.22
84667;BME280;74896;42.518;23.712;2023-12-29T04:12:33;92524.63;;;1.19;83.21
84667;BME280;74896;42.518;23.712;2023-12-29T04:14:59;92528.03;;;1.34;83.31
84667;BME280;74896;42.518;23.712;2023-12-29T04:17:24;92525.56;;;1.49;82.74
84667;BME280;74896;42.518;23.712;2023-12-29T04:19:49;92536.56;;;1.49;84.45
84667;BME280;74896;42.518;23.712;2023-12-29T04:22:15;92530.81;;;1.24;84.39
84667;BME280;74896;42.518;23.712;2023-12-29T04:24:40;92536.38;;;0.97;83.68
84667;BME280;74896;42.518;23.712;2023-12-29T04:27:05;92532.78;;;0.84;86.07
84667;BME280;74896;42.518;23.712;2023-12-29T04:29:31;92530.94;;;1.00;86.52
84667;BME280;74896;42.518;23.712;2023-12-29T04:31:56;92534.75;;;1.35;85.42
84667;BME280;74896;42.518;23.712;2023-12-29T04:34:21;92541.38;;;1.21;83.74
84667;BME280;74896;42.518;23.712;2023-12-29T04:36:47;92533.44;;;1.08;83.28
84667;BME280;74896;42.518;23.712;2023-12-29T04:39:12;92540.78;;;1.42;84.33
84667;BME280;74896;42.518;23.712;2023-12-29T04:41:38;92543.59;;;2.30;80.56
84667;BME280;74896;42.518;23.712;2023-12-29T04:44:03;92531.53;;;3.18;76.40
84667;BME280;74896;42.518;23.712;2023-12-29T04:46:29;92543.06;;;3.64;74.02
84667;BME280;74896;42.518;23.712;2023-12-29T04:48:54;92536.66;;;3.96;71.55
84667;BME280;74896;42.518;23.712;2023-12-29T04:51:19;92545.69;;;4.13;71.08
84667;BME280;74896;42.518;23.712;2023-12-29T04:53:46;92545.41;;;4.29;70.74
84667;BME280;74896;42.518;23.712;2023-12-29T04:56:11;92538.31;;;4.31;70.73
84667;BME280;74896;42.518;23.712;2023-12-29T04:58:37;92544.81;;;4.27;70.11
84667;BME280;74896;42.518;23.712;2023-12-29T05:01:03;92541.03;;;4.23;70.27
84667;BME280;74896;42.518;23.712;2023-12-29T05:03:28;92541.16;;;4.15;71.14
84667;BME280;74896;42.518;23.712;2023-12-29T05:05:54;92542.50;;;4.11;72.13
84667;BME280;74896;42.518;23.712;2023-12-29T05:08:19;92544.88;;;4.12;70.84
84667;BME280;74896;42.518;23.712;2023-12-29T05:10:45;92551.97;;;4.10;72.73
84667;BME280;74896;42.518;23.712;2023-12-29T05:13:10;92549.84;;;4.14;71.50
84667;BME280;74896;42.518;23.712;2023-12-29T05:15:35;92551.16;;;4.10;72.83
84667;BME280;74896;42.518;23.712;2023-12-29T05:18:01;92549.56;;;4.02;72.83
84667;BME280;74896;42.518;23.712;2023-12-29T05:20:26;92545.28;;;3.67;73.16
84667;BME280;74896;42.518;23.712;2023-12-29T05:22:52;92538.84;;;3.35;75.39
84667;BME280;74896;42.518;23.712;2023-12-29T05:25:17;92537.50;;;3.39;74.28
84667;BME280;74896;42.518;23.712;2023-12-29T05:27:42;92538.66;;;2.87;73.99
84667;BME280;74896;42.518;23.712;2023-12-29T05:30:08;92535.00;;;2.37;76.28
84667;BME280;74896;42.518;23.712;2023-12-29T05:32:34;92541.00;;;2.15;76.68
84667;BME280;74896;42.518;23.712;2023-12-29T05:34:59;92541.38;;;1.89;77.32
84667;BME280;74896;42.518;23.712;2023-12-29T05:37:25;92543.78;;;1.46;77.94
84667;BME280;74896;42.518;23.712;2023-12-29T05:39:50;92544.06;;;1.51;79.64
84667;BME280;74896;42.518;23.712;2023-12-29T05:42:16;92537.41;;;1.41;78.84
84667;BME280;74896;42.518;23.712;2023-12-29T05:44:41;92542.84;;;1.38;79.43
84667;BME280;74896;42.518;23.712;2023-12-29T05:47:07;92543.38;;;1.57;79.53
84667;BME280;74896;42.518;23.712;2023-12-29T05:49:32;92536.72;;;1.48;79.13
84667;BME280;74896;42.518;23.712;2023-12-29T05:52:03;92542.72;;;1.40;80.42
84667;BME280;74896;42.518;23.712;2023-12-29T05:54:29;92537.31;;;1.35;80.96
84667;BME280;74896;42.518;23.712;2023-12-29T05:56:54;92541.94;;;1.31;80.78
84667;BME280;74896;42.518;23.712;2023-12-29T05:59:19;92533.44;;;1.39;81.41
84667;BME280;74896;42.518;23.712;2023-12-29T06:01:45;92533.94;;;1.57;80.86
84667;BME280;74896;42.518;23.712;2023-12-29T06:04:11;92536.44;;;1.88;80.87
84667;BME280;74896;42.518;23.712;2023-12-29T06:06:36;92531.63;;;2.07;80.44
84667;BME280;74896;42.518;23.712;2023-12-29T06:09:02;92544.38;;;2.30;80.03
84667;BME280;74896;42.518;23.712;2023-12-29T06:11:27;92539.88;;;2.32;80.06
84667;BME280;74896;42.518;23.712;2023-12-29T06:13:52;92544.47;;;2.37;80.11
84667;BME280;74896;42.518;23.712;2023-12-29T06:16:21;92537.69;;;2.44;79.96
84667;BME280;74896;42.518;23.712;2023-12-29T06:18:47;92536.19;;;2.49;80.24
84667;BME280;74896;42.518;23.712;2023-12-29T06:21:12;92532.84;;;2.78;78.99
84667;BME280;74896;42.518;23.712;2023-12-29T06:23:38;92529.00;;;3.03;78.67
84667;BME280;74896;42.518;23.712;2023-12-29T06:26:04;92530.91;;;3.16;77.96
84667;BME280;74896;42.518;23.712;2023-12-29T06:28:29;92524.09;;;3.23;76.18
84667;BME280;74896;42.518;23.712;2023-12-29T06:30:55;92532.97;;;3.06;79.19
84667;BME280;74896;42.518;23.712;2023-12-29T06:33:20;92528.06;;;2.90;77.68
84667;BME280;74896;42.518;23.712;2023-12-29T06:35:47;92530.78;;;2.88;77.52
84667;BME280;74896;42.518;23.712;2023-12-29T06:38:12;92519.38;;;3.05;77.08
84667;BME280;74896;42.518;23.712;2023-12-29T06:40:38;92530.59;;;3.04;77.27
84667;BME280;74896;42.518;23.712;2023-12-29T06:43:04;92524.03;;;3.16;77.53
84667;BME280;74896;42.518;23.712;2023-12-29T06:45:29;92522.28;;;3.17;77.01
84667;BME280;74896;42.518;23.712;2023-12-29T06:47:55;92518.47;;;3.13;77.27
84667;BME280;74896;42.518;23.712;2023-12-29T06:50:20;92520.94;;;3.21;77.75
84667;BME280;74896;42.518;23.712;2023-12-29T06:52:46;92527.78;;;3.35;77.47
84667;BME280;74896;42.518;23.712;2023-12-29T06:55:11;92527.91;;;3.48;77.00
84667;BME280;74896;42.518;23.712;2023-12-29T06:57:37;92530.69;;;3.68;75.36
84667;BME280;74896;42.518;23.712;2023-12-29T07:00:03;92535.63;;;3.90;75.16
84667;BME280;74896;42.518;23.712;2023-12-29T07:02:29;92531.78;;;4.28;72.94
84667;BME280;74896;42.518;23.712;2023-12-29T07:04:54;92528.88;;;4.66;70.78
84667;BME280;74896;42.518;23.712;2023-12-29T07:07:20;92527.56;;;5.17;68.61
84667;BME280;74896;42.518;23.712;2023-12-29T07:09:45;92531.00;;;5.50;67.15
84667;BME280;74896;42.518;23.712;2023-12-29T07:12:10;92530.00;;;5.38;68.25
84667;BME280;74896;42.518;23.712;2023-12-29T07:14:36;92532.56;;;5.32;69.71
84667;BME280;74896;42.518;23.712;2023-12-29T07:17:02;92532.72;;;5.24;69.08
84667;BME280;74896;42.518;23.712;2023-12-29T07:19:27;92526.84;;;5.36;68.59
84667;BME280;74896;42.518;23.712;2023-12-29T07:21:59;92527.47;;;5.45;68.94
84667;BME280;74896;42.518;23.712;2023-12-29T07:24:25;92530.25;;;5.56;68.60
84667;BME280;74896;42.518;23.712;2023-12-29T07:26:50;92525.94;;;5.83;68.82
84667;BME280;74896;42.518;23.712;2023-12-29T07:29:16;92524.81;;;5.99;67.49
84667;BME280;74896;42.518;23.712;2023-12-29T07:31:41;92534.34;;;6.05;68.13
84667;BME280;74896;42.518;23.712;2023-12-29T07:34:06;92529.56;;;6.15;68.09
84667;BME280;74896;42.518;23.712;2023-12-29T07:36:32;92522.25;;;6.18;67.80
84667;BME280;74896;42.518;23.712;2023-12-29T07:38:57;92514.13;;;6.15;68.18
84667;BME280;74896;42.518;23.712;2023-12-29T07:41:23;92525.03;;;6.36;68.62
84667;BME280;74896;42.518;23.712;2023-12-29T07:43:48;92521.06;;;6.54;67.38
84667;BME280;74896;42.518;23.712;2023-12-29T07:46:23;92525.41;;;6.53;68.30
84667;BME280;74896;42.518;23.712;2023-12-29T07:48:48;92528.94;;;6.78;66.94
84667;BME280;74896;42.518;23.712;2023-12-29T07:51:14;92527.94;;;6.86;65.91
84667;BME280;74896;42.518;23.712;2023-12-29T07:53:41;92520.53;;;7.09;64.41
84667;BME280;74896;42.518;23.712;2023-12-29T07:56:06;92520.06;;;7.32;64.59
84667;BME280;74896;42.518;23.712;2023-12-29T07:58:32;92512.94;;;7.27;63.99
84667;BME280;74896;42.518;23.712;2023-12-29T08:00:57;92514.28;;;7.36;64.16
84667;BME280;74896;42.518;23.712;2023-12-29T08:03:23;92517.50;;;7.19;63.83
84667;BME280;74896;42.518;23.712;2023-12-29T08:05:48;92520.22;;;7.43;63.66
84667;BME280;74896;42.518;23.712;2023-12-29T08:08:14;92518.81;;;7.47;62.82
84667;BME280;74896;42.518;23.712;2023-12-29T08:10:39;92519.38;;;7.49;63.09
84667;BME280;74896;42.518;23.712;2023-12-29T08:13:05;92522.75;;;7.50;63.59
84667;BME280;74896;42.518;23.712;2023-12-29T08:15:32;92519.75;;;7.53;62.96
84667;BME280;74896;42.518;23.712;2023-12-29T08:17:58;92519.88;;;7.64;62.84
84667;BME280;74896;42.518;23.712;2023-12-29T08:20:23;92518.81;;;7.78;61.96
84667;BME280;74896;42.518;23.712;2023-12-29T08:22:49;92516.94;;;7.99;61.94
84667;BME280;74896;42.518;23.712;2023-12-29T08:25:15;92521.59;;;8.08;62.01
84667;BME280;74896;42.518;23.712;2023-12-29T08:27:40;92520.34;;;8.17;62.54
84667;BME280;74896;42.518;23.712;2023-12-29T08:30:06;92524.38;;;8.13;62.86
84667;BME280;74896;42.518;23.712;2023-12-29T08:32:32;92523.34;;;7.90;62.88
84667;BME280;74896;42.518;23.712;2023-12-29T08:34:58;92521.97;;;7.87;60.86
84667;BME280;74896;42.518;23.712;2023-12-29T08:37:24;92513.72;;;8.03;61.14
84667;BME280;74896;42.518;23.712;2023-12-29T08:39:49;92526.63;;;8.03;61.47
84667;BME280;74896;42.518;23.712;2023-12-29T08:42:15;92516.09;;;8.05;62.33
84667;BME280;74896;42.518;23.712;2023-12-29T08:44:41;92518.50;;;8.00;62.00
84667;BME280;74896;42.518;23.712;2023-12-29T08:47:06;92512.88;;;8.09;61.08
84667;BME280;74896;42.518;23.712;2023-12-29T08:49:36;92519.53;;;8.23;61.90
84667;BME280;74896;42.518;23.712;2023-12-29T08:52:02;92523.50;;;7.95;60.77
84667;BME280;74896;42.518;23.712;2023-12-29T08:54:28;92521.03;;;8.06;60.72
84667;BME280;74896;42.518;23.712;2023-12-29T08:56:53;92527.31;;;7.86;62.35
84667;BME280;74896;42.518;23.712;2023-12-29T08:59:18;92537.59;;;7.99;61.44
84667;BME280;74896;42.518;23.712;2023-12-29T09:01:44;92525.19;;;7.83;62.08
84667;BME280;74896;42.518;23.712;2023-12-29T09:04:09;92531.09;;;7.83;62.08
84667;BME280;74896;42.518;23.712;2023-12-29T09:06:34;92530.53;;;7.81;62.14
84667;BME280;74896;42.518;23.712;2023-12-29T09:09:00;92530.81;;;7.98;61.46
84667;BME280;74896;42.518;23.712;2023-12-29T09:11:25;92520.25;;;7.74;61.87
84667;BME280;74896;42.518;23.712;2023-12-29T09:13:51;92521.25;;;7.73;62.80
84667;BME280;74896;42.518;23.712;2023-12-29T09:16:17;92524.31;;;7.57;62.66
84667;BME280;74896;42.518;23.712;2023-12-29T09:18:42;92522.09;;;7.61;62.22
84667;BME280;74896;42.518;23.712;2023-12-29T09:21:08;92525.59;;;7.79;61.88
84667;BME280;74896;42.518;23.712;2023-12-29T09:23:33;92520.47;;;7.73;62.03
84667;BME280;74896;42.518;23.712;2023-12-29T09:25:59;92529.50;;;7.89;61.85
84667;BME280;74896;42.518;23.712;2023-12-29T09:28:24;92528.00;;;8.06;60.50
84667;BME280;74896;42.518;23.712;2023-12-29T09:30:50;92524.41;;;8.07;61.95
84667;BME280;74896;42.518;23.712;2023-12-29T09:33:16;92526.25;;;8.24;59.65
84667;BME280;74896;42.518;23.712;2023-12-29T09:35:42;92532.59;;;8.35;57.78
84667;BME280;74896;42.518;23.712;2023-12-29T09:38:07;92519.69;;;8.35;59.33
84667;BME280;74896;42.518;23.712;2023-12-29T09:40:35;92516.22;;;8.41;59.19
84667;BME280;74896;42.518;23.712;2023-12-29T09:43:02;92514.56;;;8.53;59.19
84667;BME280;74896;42.518;23.712;2023-12-29T09:45:30;92504.53;;;8.63;57.61
84667;BME280;74896;42.518;23.712;2023-12-29T09:47:58;92508.69;;;8.64;55.90
84667;BME280;74896;42.518;23.712;2023-12-29T09:50:24;92501.00;;;8.76;55.27
84667;BME280;74896;42.518;23.712;2023-12-29T09:52:52;92500.59;;;9.15;55.80
84667;BME280;74896;42.518;23.712;2023-12-29T09:55:18;92498.66;;;9.10;54.81
84667;BME280;74896;42.518;23.712;2023-12-29T09:57:46;92501.97;;;9.17;55.06
84667;BME280;74896;42.518;23.712;2023-12-29T10:00:15;92495.84;;;9.12;53.72
84667;BME280;74896;42.518;23.712;2023-12-29T10:02:41;92489.34;;;9.28;55.27
84667;BME280;74896;42.518;23.712;2023-12-29T10:05:07;92487.09;;;9.31;53.44
84667;BME280;74896;42.518;23.712;2023-12-29T10:07:38;92492.69;;;9.10;53.17
84667;BME280;74896;42.518;23.712;2023-12-29T10:10:05;92491.13;;;9.27;53.32
84667;BME280;74896;42.518;23.712;2023-12-29T10:12:32;92496.31;;;9.27;54.80
84667;BME280;74896;42.518;23.712;2023-12-29T10:23:04;92477.72;;;9.78;52.26
84667;BME280;74896;42.518;23.712;2023-12-29T10:25:32;92469.44;;;9.87;50.38
84667;BME280;74896;42.518;23.712;2023-12-29T10:27:58;92477.19;;;9.87;51.27
84667;BME280;74896;42.518;23.712;2023-12-29T10:30:23;92475.84;;;10.15;50.19
84667;BME280;74896;42.518;23.712;2023-12-29T10:32:49;92470.88;;;10.25;48.37
84667;BME280;74896;42.518;23.712;2023-12-29T10:35:15;92467.41;;;10.31;49.06
84667;BME280;74896;42.518;23.712;2023-12-29T10:37:41;92460.75;;;10.46;48.67
84667;BME280;74896;42.518;23.712;2023-12-29T10:40:08;92460.75;;;10.70;48.29
84667;BME280;74896;42.518;23.712;2023-12-29T10:42:33;92454.22;;;10.44;46.58
84667;BME280;74896;42.518;23.712;2023-12-29T10:45:09;92456.59;;;10.45;46.32
84667;BME280;74896;42.518;23.712;2023-12-29T10:47:43;92453.66;;;10.53;47.21
84667;BME280;74896;42.518;23.712;2023-12-29T10:50:09;92449.16;;;10.72;46.43
84667;BME280;74896;42.518;23.712;2023-12-29T10:52:34;92441.59;;;10.71;46.09
84667;BME280;74896;42.518;23.712;2023-12-29T10:55:12;92449.94;;;10.73;45.94
84667;BME280;74896;42.518;23.712;2023-12-29T10:57:38;92451.88;;;10.77;45.04
84667;BME280;74896;42.518;23.712;2023-12-29T11:00:05;92440.56;;;10.72;45.81
84667;BME280;74896;42.518;23.712;2023-12-29T11:02:33;92438.97;;;10.82;44.09
84667;BME280;74896;42.518;23.712;2023-12-29T11:05:03;92431.44;;;10.81;44.47
84667;BME280;74896;42.518;23.712;2023-12-29T11:07:39;92430.59;;;11.03;45.75
84667;BME280;74896;42.518;23.712;2023-12-29T11:10:07;92438.25;;;11.10;43.04
84667;BME280;74896;42.518;23.712;2023-12-29T11:12:34;92421.72;;;10.88;43.19
84667;BME280;74896;42.518;23.712;2023-12-29T11:15:06;92412.00;;;10.95;43.70
84667;BME280;74896;42.518;23.712;2023-12-29T11:17:33;92409.03;;;11.14;42.59
84667;BME280;74896;42.518;23.712;2023-12-29T11:20:00;92416.06;;;11.30;42.66
84667;BME280;74896;42.518;23.712;2023-12-29T11:22:29;92412.94;;;11.28;43.05
84667;BME280;74896;42.518;23.712;2023-12-29T11:24:56;92414.66;;;11.23;42.32
84667;BME280;74896;42.518;23.712;2023-12-29T11:27:26;92402.38;;;11.47;42.17
84667;BME280;74896;42.518;23.712;2023-12-29T11:29:53;92399.16;;;11.56;43.52
84667;BME280;74896;42.518;23.712;2023-12-29T11:32:22;92404.66;;;11.43;40.83
84667;BME280;74896;42.518;23.712;2023-12-29T11:34:54;92404.38;;;11.28;42.48
84667;BME280;74896;42.518;23.712;2023-12-29T11:42:38;92393.16;;;11.39;42.45
84667;BME280;74896;42.518;23.712;2023-12-29T11:45:31;92393.72;;;11.41;43.13
84667;BME280;74896;42.518;23.712;2023-12-29T11:47:59;92394.72;;;11.40;43.02
84667;BME280;74896;42.518;23.712;2023-12-29T11:50:46;92383.22;;;11.36;41.86
84667;BME280;74896;42.518;23.712;2023-12-29T11:53:31;92382.97;;;11.21;42.83
84667;BME280;74896;42.518;23.712;2023-12-29T11:55:56;92377.19;;;11.19;44.52
84667;BME280;74896;42.518;23.712;2023-12-29T11:58:26;92378.41;;;11.28;43.38
84667;BME280;74896;42.518;23.712;2023-12-29T12:00:53;92383.13;;;11.31;41.73
84667;BME280;74896;42.518;23.712;2023-12-29T12:03:27;92396.00;;;11.26;42.31
84667;BME280;74896;42.518;23.712;2023-12-29T12:05:54;92388.00;;;11.27;42.49
84667;BME280;74896;42.518;23.712;2023-12-29T12:08:28;92392.75;;;11.19;42.48
84667;BME280;74896;42.518;23.712;2023-12-29T12:10:54;92380.03;;;11.17;43.16
84667;BME280;74896;42.518;23.712;2023-12-29T12:13:45;92389.53;;;11.12;43.60
84667;BME280;74896;42.518;23.712;2023-12-29T12:19:08;92380.06;;;11.06;44.39
84667;BME280;74896;42.518;23.712;2023-12-29T12:21:34;92373.47;;;11.15;44.65
84667;BME280;74896;42.518;23.712;2023-12-29T12:24:03;92379.47;;;11.15;43.52
84667;BME280;74896;42.518;23.712;2023-12-29T12:26:30;92381.41;;;11.08;44.33
84667;BME280;74896;42.518;23.712;2023-12-29T12:28:56;92385.44;;;11.16;43.32
84667;BME280;74896;42.518;23.712;2023-12-29T12:31:22;92387.50;;;11.14;43.96
84667;BME280;74896;42.518;23.712;2023-12-29T12:33:58;92389.59;;;11.17;43.97
84667;BME280;74896;42.518;23.712;2023-12-29T12:36:23;92387.25;;;11.15;42.36
84667;BME280;74896;42.518;23.712;2023-12-29T12:38:51;92384.91;;;11.14;43.76
84667;BME280;74896;42.518;23.712;2023-12-29T12:41:17;92385.22;;;11.17;42.59
84667;BME280;74896;42.518;23.712;2023-12-29T12:43:46;92384.91;;;11.14;42.53
84667;BME280;74896;42.518;23.712;2023-12-29T12:46:15;92393.94;;;11.11;41.61
84667;BME280;74896;42.518;23.712;2023-12-29T12:48:45;92391.00;;;11.08;43.11
84667;BME280;74896;42.518;23.712;2023-12-29T12:51:12;92388.75;;;11.11;41.80
84667;BME280;74896;42.518;23.712;2023-12-29T12:53:42;92383.09;;;11.03;42.66
84667;BME280;74896;42.518;23.712;2023-12-29T12:56:10;92387.53;;;11.02;44.15
84667;BME280;74896;42.518;23.712;2023-12-29T12:58:36;92386.19;;;11.00;43.91
84667;BME280;74896;42.518;23.712;2023-12-29T13:01:02;92387.97;;;10.99;43.08
84667;BME280;74896;42.518;23.712;2023-12-29T13:03:28;92393.06;;;10.94;43.02
84667;BME280;74896;42.518;23.712;2023-12-29T13:05:56;92390.44;;;11.06;43.45
84667;BME280;74896;42.518;23.712;2023-12-29T13:08:23;92389.56;;;11.00;42.02
84667;BME280;74896;42.518;23.712;2023-12-29T13:10:50;92378.63;;;10.87;43.31